createdAt,value
2022-09-28T00:01:13.834Z,2.35
2022-09-28T00:03:41.154Z,1.98
2022-09-28T00:06:11.536Z,1.60
2022-09-28T00:08:39.164Z,1.95
2022-09-28T00:11:09.279Z,2.10
2022-09-28T00:13:36.521Z,1.80
2022-09-28T00:16:06.317Z,1.77
2022-09-28T00:18:34.298Z,1.90
2022-09-28T00:21:08.476Z,1.80
2022-09-28T00:23:56.610Z,2.00
2022-09-28T00:26:24.706Z,1.80
2022-09-28T00:28:53.017Z,1.90
2022-09-28T00:31:21.142Z,1.90
2022-09-28T00:33:52.366Z,1.73
2022-09-28T00:36:19.899Z,1.70
2022-09-28T00:38:47.007Z,2.20
2022-09-28T00:41:14.834Z,2.25
2022-09-28T00:43:42.447Z,1.92
2022-09-28T00:46:24.789Z,1.77
2022-09-28T00:48:59.021Z,2.00
2022-09-28T00:51:27.051Z,2.05
2022-09-28T00:53:56.156Z,2.47
2022-09-28T00:56:26.571Z,2.03
2022-09-28T00:58:54.665Z,1.45
2022-09-28T01:01:22.460Z,1.75
2022-09-28T01:03:49.751Z,1.90
2022-09-28T01:06:20.709Z,1.65
2022-09-28T01:08:51.436Z,2.08
2022-09-28T01:11:19.622Z,1.83
2022-09-28T01:13:50.413Z,2.10
2022-09-28T01:16:57.505Z,1.80
2022-09-28T01:19:53.376Z,2.00
2022-09-28T01:22:55.645Z,2.58
2022-09-28T01:25:42.893Z,2.78
2022-09-28T01:28:17.223Z,2.10
2022-09-28T01:31:10.335Z,2.40
2022-09-28T01:33:42.887Z,1.92
2022-09-28T01:36:19.701Z,2.55
2022-09-28T01:38:53.139Z,2.10
2022-09-28T01:41:23.519Z,2.88
2022-09-28T01:43:55.391Z,3.33
2022-09-28T01:46:27.930Z,3.10
2022-09-28T01:48:59.090Z,3.65
2022-09-28T01:52:00.754Z,3.83
2022-09-28T01:54:53.601Z,3.05
2022-09-28T01:57:50.006Z,3.83
2022-09-28T02:00:20.575Z,2.60
2022-09-28T02:03:03.138Z,2.88
2022-09-28T02:05:41.980Z,3.30
2022-09-28T02:08:38.062Z,2.22
2022-09-28T02:13:47.019Z,2.63
2022-09-28T02:16:21.559Z,2.90
2022-09-28T02:18:50.904Z,2.65
2022-09-28T02:21:25.856Z,2.90
2022-09-28T02:23:59.506Z,2.20
2022-09-28T02:26:32.217Z,4.05
2022-09-28T02:28:59.599Z,3.13
2022-09-28T02:31:27.978Z,5.78
2022-09-28T02:33:57.280Z,6.65
2022-09-28T02:36:28.866Z,6.68
2022-09-28T02:38:58.296Z,6.00
2022-09-28T02:42:02.926Z,6.45
2022-09-28T02:47:16.163Z,4.32
2022-09-28T02:50:03.635Z,4.63
2022-09-28T02:52:49.651Z,4.30
2022-09-28T02:55:22.759Z,4.20
2022-09-28T02:57:52.905Z,3.20
2022-09-28T03:00:23.083Z,3.17
2022-09-28T03:03:11.901Z,4.07
2022-09-28T03:06:13.878Z,3.00
2022-09-28T03:08:58.982Z,4.47
2022-09-28T03:11:43.707Z,3.00
2022-09-28T03:14:11.514Z,3.42
2022-09-28T03:16:49.348Z,2.33
2022-09-28T03:19:20.207Z,2.40
2022-09-28T03:21:47.328Z,2.55
2022-09-28T03:24:15.288Z,2.80
2022-09-28T03:26:42.394Z,3.67
2022-09-28T03:29:10.582Z,2.47
2022-09-28T03:31:39.020Z,2.03
2022-09-28T03:34:09.039Z,2.30
2022-09-28T03:36:36.311Z,2.42
2022-09-28T03:39:04.595Z,2.65
2022-09-28T03:41:31.782Z,2.17
2022-09-28T03:43:58.961Z,3.17
2022-09-28T03:46:28.479Z,2.80
2022-09-28T03:49:00.157Z,2.08
2022-09-28T03:51:29.485Z,1.75
2022-09-28T03:53:57.270Z,2.63
2022-09-28T03:56:24.365Z,2.58
2022-09-28T03:58:51.854Z,1.90
2022-09-28T04:01:19.048Z,2.50
2022-09-28T04:03:47.945Z,3.05
2022-09-28T04:06:15.349Z,2.53
2022-09-28T04:08:43.293Z,2.42
2022-09-28T04:11:11.206Z,3.35
2022-09-28T04:13:38.526Z,2.35
2022-09-28T04:16:09.919Z,2.13
2022-09-28T04:18:37.129Z,2.15
2022-09-28T04:21:23.083Z,2.38
2022-09-28T04:23:55.877Z,2.25
2022-09-28T04:26:24.975Z,2.58
2022-09-28T04:29:10.911Z,2.35
2022-09-28T04:31:52.782Z,3.13
2022-09-28T04:34:23.293Z,3.25
2022-09-28T04:36:51.129Z,3.38
2022-09-28T04:39:21.699Z,3.13
2022-09-28T04:41:52.264Z,2.97
2022-09-28T04:44:19.682Z,3.05
2022-09-28T04:46:48.133Z,2.85
2022-09-28T04:49:38.466Z,3.15
2022-09-28T04:52:18.707Z,3.53
2022-09-28T04:54:48.957Z,3.63
2022-09-28T04:57:16.834Z,3.65
2022-09-28T04:59:44.195Z,3.85
2022-09-28T05:02:14.938Z,4.10
2022-09-28T05:05:14.645Z,4.10
2022-09-28T05:08:00.259Z,4.63
2022-09-28T05:10:27.467Z,4.82
2022-09-28T05:12:54.585Z,6.78
2022-09-28T05:15:21.702Z,5.55
2022-09-28T05:17:49.337Z,4.20
2022-09-28T05:20:41.054Z,3.72
2022-09-28T05:23:12.853Z,4.22
2022-09-28T05:25:42.801Z,3.90
2022-09-28T05:28:25.904Z,3.63
2022-09-28T05:31:28.223Z,3.88
2022-09-28T05:34:33.915Z,2.80
2022-09-28T05:37:01.234Z,3.10
2022-09-28T05:39:28.412Z,2.90
2022-09-28T05:41:57.802Z,3.30
2022-09-28T05:44:25.837Z,3.50
2022-09-28T05:46:54.651Z,3.40
2022-09-28T05:49:21.743Z,4.35
2022-09-28T05:51:48.830Z,4.38
2022-09-28T05:54:16.001Z,4.95
2022-09-28T05:56:46.415Z,5.25
2022-09-28T05:59:13.683Z,6.28
2022-09-28T06:01:41.908Z,5.95
2022-09-28T06:04:11.222Z,5.90
2022-09-28T06:06:39.091Z,6.30
2022-09-28T06:09:06.187Z,6.95
2022-09-28T06:11:33.589Z,6.15
2022-09-28T06:14:07.578Z,6.72
2022-09-28T06:16:35.112Z,6.85
2022-09-28T06:19:02.355Z,8.00
2022-09-28T06:21:42.271Z,7.30
2022-09-28T06:24:09.481Z,7.65
2022-09-28T06:26:37.880Z,7.82
2022-09-28T06:29:06.195Z,9.30
2022-09-28T06:31:33.607Z,8.63
2022-09-28T06:34:01.748Z,8.60
2022-09-28T06:36:31.240Z,8.13
2022-09-28T06:38:58.492Z,8.73
2022-09-28T06:41:25.812Z,8.82
2022-09-28T06:43:53.114Z,8.15
2022-09-28T06:46:39.332Z,9.68
2022-09-28T06:49:30.227Z,7.88
2022-09-28T06:52:15.831Z,8.40
2022-09-28T06:55:04.113Z,8.30
2022-09-28T06:57:41.515Z,7.93
2022-09-28T07:00:09.216Z,8.90
2022-09-28T07:02:36.685Z,8.15
2022-09-28T07:05:27.529Z,8.27
2022-09-28T07:08:04.593Z,8.60
2022-09-28T07:11:09.946Z,7.18
2022-09-28T07:13:59.885Z,8.15
2022-09-28T07:16:33.086Z,8.27
2022-09-28T07:19:16.434Z,7.90
2022-09-28T07:21:46.079Z,7.60
2022-09-28T07:24:15.993Z,7.85
2022-09-28T07:27:04.429Z,7.07
2022-09-28T07:29:55.703Z,8.80
2022-09-28T07:32:37.164Z,7.53
2022-09-28T07:35:24.098Z,7.80
2022-09-28T07:38:01.402Z,8.07
2022-09-28T07:40:48.564Z,7.63
2022-09-28T07:43:20.631Z,6.80
2022-09-28T07:45:52.406Z,7.10
2022-09-28T07:48:20.847Z,7.13
2022-09-28T07:51:11.515Z,6.85
2022-09-28T07:54:01.749Z,7.13
2022-09-28T07:56:57.882Z,7.07
2022-09-28T07:59:31.713Z,7.50
2022-09-28T08:02:20.353Z,6.05
2022-09-28T08:04:48.663Z,6.60
2022-09-28T08:07:21.553Z,6.93
2022-09-28T08:09:56.070Z,6.32
2022-09-28T08:12:29.255Z,6.55
2022-09-28T08:15:12.879Z,7.30
2022-09-28T08:18:04.286Z,6.68
2022-09-28T08:20:51.848Z,6.72
2022-09-28T08:23:20.418Z,7.18
2022-09-28T08:25:52.679Z,6.13
2022-09-28T08:28:22.556Z,5.72
2022-09-28T08:30:51.867Z,5.57
2022-09-28T08:33:41.236Z,6.55
2022-09-28T08:36:28.240Z,6.53
2022-09-28T08:39:34.623Z,5.13
2022-09-28T08:42:35.402Z,6.00
2022-09-28T08:45:35.930Z,6.47
2022-09-28T08:48:48.568Z,4.90
2022-09-28T08:51:53.482Z,4.28
2022-09-28T08:55:02.899Z,4.22
2022-09-28T08:57:45.068Z,4.78
2022-09-28T09:00:21.443Z,4.18
2022-09-28T09:02:49.389Z,3.90
2022-09-28T09:05:23.144Z,4.05
2022-09-28T09:08:23.943Z,4.70
2022-09-28T09:11:23.217Z,3.38
2022-09-28T09:13:56.331Z,3.42
2022-09-28T09:16:47.015Z,3.33
2022-09-28T09:20:03.781Z,6.75
2022-09-28T09:22:57.486Z,2.67
2022-09-28T09:25:42.362Z,3.08
2022-09-28T09:28:31.769Z,3.17
2022-09-28T09:31:22.661Z,2.63
2022-09-28T09:34:38.911Z,3.10
2022-09-28T09:37:34.520Z,4.07
2022-09-28T09:41:02.449Z,2.80
2022-09-28T09:44:11.730Z,2.50
2022-09-28T09:47:08.048Z,2.90
2022-09-28T09:49:55.978Z,2.55
2022-09-28T09:55:15.238Z,2.30
2022-09-28T09:57:57.886Z,2.13
2022-09-28T10:00:40.268Z,1.92
2022-09-28T10:03:24.924Z,2.37
2022-09-28T10:06:01.290Z,2.58
2022-09-28T10:08:34.308Z,2.03
2022-09-28T10:11:16.858Z,1.60
2022-09-28T10:13:49.289Z,1.70
2022-09-28T10:16:39.678Z,2.25
2022-09-28T10:19:13.809Z,2.05
2022-09-28T10:22:04.934Z,2.15
2022-09-28T10:24:36.475Z,2.17
2022-09-28T10:27:11.549Z,1.88
2022-09-28T10:29:50.853Z,1.70
2022-09-28T10:32:37.766Z,3.05
2022-09-28T10:35:14.914Z,1.90
2022-09-28T10:37:57.437Z,3.53
2022-09-28T10:41:00.612Z,5.13
2022-09-28T10:44:06.937Z,2.60
2022-09-28T10:47:00.929Z,1.92
2022-09-28T10:49:50.552Z,1.80
2022-09-28T10:52:47.578Z,2.05
2022-09-28T10:56:04.910Z,2.88
2022-09-28T10:58:41.982Z,1.70
2022-09-28T11:01:21.428Z,1.65
2022-09-28T11:03:53.508Z,2.30
2022-09-28T11:06:32.836Z,3.10
2022-09-28T11:09:07.454Z,1.85
2022-09-28T11:11:41.982Z,1.90
2022-09-28T11:14:27.534Z,1.70
2022-09-28T11:17:17.459Z,2.00
2022-09-28T11:19:46.077Z,1.63
2022-09-28T11:22:22.167Z,1.52
2022-09-28T11:24:53.142Z,1.35
2022-09-28T11:27:23.175Z,1.38
2022-09-28T11:29:57.815Z,1.98
2022-09-28T11:32:43.528Z,2.35
2022-09-28T11:35:50.203Z,1.70
2022-09-28T11:38:29.484Z,2.17
2022-09-28T11:41:37.811Z,1.38
2022-09-28T11:44:11.304Z,1.60
2022-09-28T11:49:38.050Z,2.10
2022-09-28T11:52:36.141Z,1.88
2022-09-28T11:55:12.160Z,2.45
2022-09-28T11:57:43.023Z,2.65
2022-09-28T12:00:22.518Z,1.73
2022-09-28T12:03:19.811Z,1.60
2022-09-28T12:06:01.141Z,1.80
2022-09-28T12:08:32.194Z,1.48
2022-09-28T12:11:26.435Z,2.83
2022-09-28T12:14:24.303Z,1.38
2022-09-28T12:17:07.930Z,1.33
2022-09-28T12:20:02.226Z,1.15
2022-09-28T12:22:38.308Z,1.83
2022-09-28T12:25:12.583Z,1.55
2022-09-28T12:27:53.368Z,2.33
2022-09-28T12:30:22.490Z,1.67
2022-09-28T12:32:56.291Z,1.30
2022-09-28T12:35:56.763Z,2.10
2022-09-28T12:39:18.673Z,1.20
2022-09-28T12:41:55.813Z,1.20
2022-09-28T12:44:50.487Z,1.60
2022-09-28T12:47:37.543Z,1.50
2022-09-28T12:50:39.879Z,1.50
2022-09-28T12:53:20.105Z,1.65
2022-09-28T12:56:04.767Z,2.47
2022-09-28T12:58:47.993Z,1.80
2022-09-28T13:01:46.426Z,1.60
2022-09-28T13:04:28.494Z,1.25
2022-09-28T13:07:29.465Z,1.20
2022-09-28T13:10:07.278Z,1.35
2022-09-28T13:12:41.691Z,1.98
2022-09-28T13:15:29.525Z,1.33
2022-09-28T13:18:06.194Z,1.20
2022-09-28T13:20:44.153Z,1.60
2022-09-28T13:23:39.651Z,1.80
2022-09-28T13:26:28.119Z,1.25
2022-09-28T13:29:02.147Z,1.77
2022-09-28T13:31:34.958Z,1.63
2022-09-28T13:34:06.131Z,1.88
2022-09-28T13:36:33.172Z,1.40
2022-09-28T13:39:01.359Z,1.83
2022-09-28T13:41:37.781Z,1.40
2022-09-28T13:44:13.577Z,1.70
2022-09-28T13:47:12.923Z,1.40
2022-09-28T13:49:48.977Z,1.25
2022-09-28T13:52:44.699Z,1.88
2022-09-28T13:55:33.118Z,1.83
2022-09-28T13:58:05.538Z,1.90
2022-09-28T14:00:46.081Z,1.30
2022-09-28T14:03:26.806Z,2.92
2022-09-28T14:06:10.890Z,1.73
2022-09-28T14:09:04.866Z,1.90
2022-09-28T14:11:34.147Z,1.50
2022-09-28T14:14:05.559Z,2.08
2022-09-28T14:16:35.486Z,1.38
2022-09-28T14:19:08.228Z,1.30
2022-09-28T14:22:14.391Z,1.50
2022-09-28T14:24:47.527Z,2.08
2022-09-28T14:30:20.067Z,1.80
2022-09-28T14:32:58.423Z,2.03
2022-09-28T14:35:40.082Z,2.72
2022-09-28T14:38:35.554Z,1.90
2022-09-28T14:41:12.435Z,1.77
2022-09-28T14:43:45.760Z,2.30
2022-09-28T14:46:14.448Z,1.48
2022-09-28T14:48:49.770Z,1.40
2022-09-28T14:51:35.442Z,1.75
2022-09-28T14:54:02.474Z,1.67
2022-09-28T14:56:53.328Z,1.48
2022-09-28T14:59:26.805Z,1.20
2022-09-28T15:02:12.384Z,2.13
2022-09-28T15:04:52.916Z,2.08
2022-09-28T15:07:29.680Z,1.33
2022-09-28T15:10:00.822Z,2.33
2022-09-28T15:12:30.326Z,1.80
2022-09-28T15:15:02.178Z,1.73
2022-09-28T15:17:36.988Z,2.00
2022-09-28T15:20:12.199Z,1.55
2022-09-28T15:25:15.415Z,1.30
2022-09-28T15:27:42.776Z,1.40
2022-09-28T15:30:19.087Z,1.83
2022-09-28T15:32:46.341Z,2.05
2022-09-28T15:35:20.578Z,2.13
2022-09-28T15:37:51.939Z,1.65
2022-09-28T15:40:22.417Z,2.42
2022-09-28T15:42:49.599Z,2.00
2022-09-28T15:45:36.650Z,2.10
2022-09-28T15:48:23.474Z,1.92
2022-09-28T15:51:13.123Z,2.63
2022-09-28T15:53:51.104Z,1.98
2022-09-28T15:56:18.335Z,1.85
2022-09-28T15:59:18.858Z,2.05
2022-09-28T16:01:45.921Z,1.73
2022-09-28T16:04:37.690Z,2.67
2022-09-28T16:07:10.550Z,1.85
2022-09-28T16:10:11.569Z,1.73
2022-09-28T16:12:46.445Z,1.38
2022-09-28T16:15:20.440Z,2.03
2022-09-28T16:17:57.638Z,1.88
2022-09-28T16:20:35.550Z,1.77
2022-09-28T16:23:20.538Z,2.22
2022-09-28T16:25:51.707Z,3.30
2022-09-28T16:28:50.800Z,1.65
2022-09-28T16:31:20.891Z,2.00
2022-09-28T16:33:59.544Z,1.73
2022-09-28T16:36:43.412Z,2.13
2022-09-28T16:39:11.680Z,1.88
2022-09-28T16:41:41.783Z,3.22
2022-09-28T16:44:16.918Z,2.35
2022-09-28T16:46:45.268Z,2.10
2022-09-28T16:49:19.933Z,3.15
2022-09-28T16:51:47.850Z,3.33
2022-09-28T16:54:36.535Z,2.30
2022-09-28T16:57:05.458Z,1.95
2022-09-28T16:59:33.765Z,2.20
2022-09-28T17:02:00.953Z,2.35
2022-09-28T17:04:28.741Z,2.35
2022-09-28T17:06:56.635Z,2.78
2022-09-28T17:09:23.908Z,2.42
2022-09-28T17:11:56.631Z,2.33
2022-09-28T17:14:24.072Z,2.28
2022-09-28T17:17:13.747Z,2.10
2022-09-28T17:19:41.910Z,1.90
2022-09-28T17:22:09.914Z,2.08
2022-09-28T17:24:37.307Z,1.70
2022-09-28T17:27:06.824Z,1.60
2022-09-28T17:29:33.924Z,2.10
2022-09-28T17:32:01.259Z,3.85
2022-09-28T17:34:28.702Z,8.07
2022-09-28T17:36:55.918Z,6.53
2022-09-28T17:39:25.014Z,5.97
2022-09-28T17:41:52.291Z,3.03
2022-09-28T17:44:19.801Z,8.20
2022-09-28T17:46:48.941Z,6.97
2022-09-28T17:49:16.865Z,5.00
2022-09-28T17:51:44.057Z,4.05
2022-09-28T17:54:12.936Z,3.03
2022-09-28T17:56:40.140Z,2.85
2022-09-28T17:59:12.591Z,2.35
2022-09-28T18:01:40.597Z,2.80
2022-09-28T18:04:15.895Z,2.45
2022-09-28T18:06:54.978Z,3.60
2022-09-28T18:09:25.242Z,3.80
2022-09-28T18:12:03.472Z,3.20
2022-09-28T18:14:30.654Z,10.93
2022-09-28T18:16:57.742Z,13.50
2022-09-28T18:19:28.563Z,12.25
2022-09-28T18:21:59.032Z,9.60
2022-09-28T18:24:26.119Z,6.22
2022-09-28T18:26:53.173Z,3.40
2022-09-28T18:29:20.222Z,2.88
2022-09-28T18:31:48.711Z,2.53
2022-09-28T18:34:16.009Z,2.47
2022-09-28T18:36:43.237Z,2.63
2022-09-28T18:39:10.334Z,2.65
2022-09-28T18:41:37.478Z,2.28
2022-09-28T18:44:04.649Z,2.20
2022-09-28T18:46:36.294Z,2.80
2022-09-28T18:49:04.663Z,2.60
2022-09-28T18:51:31.814Z,2.95
2022-09-28T18:54:00.668Z,2.67
2022-09-28T18:56:27.823Z,2.60
2022-09-28T18:58:54.954Z,2.63
2022-09-28T19:01:30.742Z,2.65
2022-09-28T19:04:00.160Z,2.60
2022-09-28T19:06:27.682Z,3.67
2022-09-28T19:08:55.690Z,2.85
2022-09-28T19:11:24.067Z,3.65
2022-09-28T19:13:53.175Z,5.35
2022-09-28T19:16:26.702Z,4.80
2022-09-28T19:21:21.511Z,4.57
2022-09-28T19:23:49.772Z,17.77
2022-09-28T19:26:22.699Z,26.98
2022-09-28T19:28:50.444Z,7.20
2022-09-28T19:31:17.551Z,6.15
2022-09-28T19:33:46.431Z,9.23
2022-09-28T19:36:18.183Z,9.52
2022-09-28T19:38:46.116Z,7.65
2022-09-28T19:41:37.801Z,4.40
2022-09-28T19:44:27.135Z,2.72
2022-09-28T19:47:06.898Z,3.38
2022-09-28T19:49:39.038Z,5.38
2022-09-28T19:52:15.646Z,6.15
2022-09-28T19:54:57.033Z,3.67
2022-09-28T19:57:29.837Z,3.70
2022-09-28T20:00:02.163Z,4.03
2022-09-28T20:02:33.581Z,3.10
2022-09-28T20:05:00.782Z,3.72
2022-09-28T20:07:27.933Z,3.35
2022-09-28T20:09:55.050Z,3.13
2022-09-28T20:12:22.396Z,3.15
2022-09-28T20:14:49.503Z,3.83
2022-09-28T20:17:16.595Z,3.50
2022-09-28T20:19:43.776Z,5.47
2022-09-28T20:22:12.165Z,11.35
2022-09-28T20:24:39.349Z,7.28
2022-09-28T20:27:06.715Z,7.22
2022-09-28T20:29:35.242Z,6.65
2022-09-28T20:32:03.845Z,5.55
2022-09-28T20:34:31.225Z,5.07
2022-09-28T20:36:58.330Z,5.05
2022-09-28T20:39:25.469Z,6.45
2022-09-28T20:41:53.520Z,6.63
2022-09-28T20:44:20.937Z,6.22
2022-09-28T20:46:51.612Z,8.30
2022-09-28T20:49:18.747Z,5.82
2022-09-28T20:51:45.962Z,5.00
2022-09-28T20:54:13.065Z,4.00
2022-09-28T20:56:40.135Z,4.07
2022-09-28T20:59:09.816Z,3.80
2022-09-28T21:15:56.139Z,4.60
2022-09-28T21:18:37.869Z,3.60
2022-09-28T21:39:56.355Z,4.07
2022-09-28T21:55:46.440Z,4.50
2022-09-28T22:08:57.744Z,4.57
2022-09-28T22:11:28.100Z,4.25
2022-09-28T22:14:00.022Z,4.63
2022-09-28T22:16:38.502Z,4.30
2022-09-28T22:31:16.345Z,3.80
2022-09-28T22:34:02.279Z,4.10
